sensor_id;sensor_type;location;lat;lon;timestamp;pressure;altitude;pressure_sealevel;temperature;humidity
49102;BME280;34913;47.520;19.186;2023-05-21T00:01:39;100022.03;;;17.60;71.45
49102;BME280;34913;47.520;19.186;2023-05-21T00:04:04;100032.44;;;17.63;71.13
49102;BME280;34913;47.520;19.186;2023-05-21T00:06:36;100035.97;;;17.55;71.79
49102;BME280;34913;47.520;19.186;2023-05-21T00:09:02;100035.16;;;17.47;71.47
49102;BME280;34913;47.520;19.186;2023-05-21T00:11:28;100036.31;;;17.44;72.39
49102;BME280;34913;47.520;19.186;2023-05-21T00:13:54;100032.50;;;17.39;71.50
49102;BME280;34913;47.520;19.186;2023-05-21T00:16:20;100040.88;;;17.36;72.21
49102;BME280;34913;47.520;19.186;2023-05-21T00:18:45;100035.69;;;17.18;73.71
49102;BME280;34913;47.520;19.186;2023-05-21T00:21:14;100039.19;;;17.18;73.63
49102;BME280;34913;47.520;19.186;2023-05-21T00:23:41;100041.41;;;17.07;73.67
49102;BME280;34913;47.520;19.186;2023-05-21T00:26:07;100032.66;;;17.05;73.18
49102;BME280;34913;47.520;19.186;2023-05-21T00:28:32;100038.38;;;17.10;73.86
49102;BME280;34913;47.520;19.186;2023-05-21T00:30:58;100038.38;;;17.01;73.46
49102;BME280;34913;47.520;19.186;2023-05-21T00:33:23;100042.38;;;16.97;73.38
49102;BME280;34913;47.520;19.186;2023-05-21T00:35:56;100044.56;;;16.94;74.50
49102;BME280;34913;47.520;19.186;2023-05-21T00:38:22;100044.38;;;16.87;74.25
49102;BME280;34913;47.520;19.186;2023-05-21T00:40:48;100039.03;;;16.87;74.18
49102;BME280;34913;47.520;19.186;2023-05-21T00:43:13;100031.28;;;16.68;74.55
49102;BME280;34913;47.520;19.186;2023-05-21T00:45:42;100029.91;;;16.64;75.72
49102;BME280;34913;47.520;19.186;2023-05-21T00:48:09;100032.94;;;16.61;75.29
49102;BME280;34913;47.520;19.186;2023-05-21T00:50:35;100034.25;;;16.57;76.05
49102;BME280;34913;47.520;19.186;2023-05-21T00:53:04;100036.59;;;16.52;76.60
49102;BME280;34913;47.520;19.186;2023-05-21T00:55:36;100036.59;;;16.52;77.02
49102;BME280;34913;47.520;19.186;2023-05-21T00:58:02;100031.72;;;16.47;76.39
49102;BME280;34913;47.520;19.186;2023-05-21T01:00:32;100028.56;;;16.52;76.69
49102;BME280;34913;47.520;19.186;2023-05-21T01:02:57;100023.88;;;16.54;76.92
49102;BME280;34913;47.520;19.186;2023-05-21T01:05:23;100030.56;;;16.50;76.69
49102;BME280;34913;47.520;19.186;2023-05-21T01:07:48;100021.00;;;16.47;76.94
49102;BME280;34913;47.520;19.186;2023-05-21T01:10:14;100026.03;;;16.50;76.96
49102;BME280;34913;47.520;19.186;2023-05-21T01:12:41;100027.69;;;16.43;76.76
49102;BME280;34913;47.520;19.186;2023-05-21T01:15:08;100026.50;;;16.37;76.80
49102;BME280;34913;47.520;19.186;2023-05-21T01:17:35;100017.94;;;16.34;77.45
49102;BME280;34913;47.520;19.186;2023-05-21T01:20:01;100023.84;;;16.37;76.84
49102;BME280;34913;47.520;19.186;2023-05-21T01:22:34;100019.97;;;16.32;77.08
49102;BME280;34913;47.520;19.186;2023-05-21T01:25:00;100018.78;;;16.34;76.81
49102;BME280;34913;47.520;19.186;2023-05-21T01:27:27;100015.28;;;16.34;76.57
49102;BME280;34913;47.520;19.186;2023-05-21T01:29:52;100010.09;;;16.32;76.42
49102;BME280;34913;47.520;19.186;2023-05-21T01:38:15;100019.50;;;16.36;76.50
49102;BME280;34913;47.520;19.186;2023-05-21T01:40:55;100010.44;;;16.29;76.43
49102;BME280;34913;47.520;19.186;2023-05-21T01:43:28;100018.28;;;16.31;76.82
49102;BME280;34913;47.520;19.186;2023-05-21T01:45:56;100012.41;;;16.27;76.83
49102;BME280;34913;47.520;19.186;2023-05-21T01:48:24;100014.25;;;16.27;75.62
49102;BME280;34913;47.520;19.186;2023-05-21T01:50:52;100021.78;;;16.23;75.65
49102;BME280;34913;47.520;19.186;2023-05-21T01:53:20;100010.06;;;16.24;76.07
49102;BME280;34913;47.520;19.186;2023-05-21T01:55:45;100011.53;;;16.18;76.24
49102;BME280;34913;47.520;19.186;2023-05-21T01:58:11;100028.97;;;16.23;75.75
49102;BME280;34913;47.520;19.186;2023-05-21T02:00:37;100021.94;;;16.22;75.74
49102;BME280;34913;47.520;19.186;2023-05-21T02:03:04;100013.06;;;16.21;75.46
49102;BME280;34913;47.520;19.186;2023-05-21T02:05:29;100003.19;;;16.22;76.38
49102;BME280;34913;47.520;19.186;2023-05-21T02:07:55;100008.56;;;16.22;75.00
49102;BME280;34913;47.520;19.186;2023-05-21T02:10:21;100006.88;;;16.21;75.07
49102;BME280;34913;47.520;19.186;2023-05-21T02:12:47;100008.03;;;16.18;75.56
49102;BME280;34913;47.520;19.186;2023-05-21T02:15:12;100002.53;;;16.19;75.17
49102;BME280;34913;47.520;19.186;2023-05-21T02:17:42;100015.75;;;16.21;75.02
49102;BME280;34913;47.520;19.186;2023-05-21T02:20:08;100014.75;;;16.22;74.16
49102;BME280;34913;47.520;19.186;2023-05-21T02:22:42;100003.50;;;16.18;73.96
49102;BME280;34913;47.520;19.186;2023-05-21T02:25:09;100008.03;;;16.18;74.85
49102;BME280;34913;47.520;19.186;2023-05-21T02:27:36;100004.03;;;16.22;74.68
49102;BME280;34913;47.520;19.186;2023-05-21T02:30:03;100004.72;;;16.24;73.53
49102;BME280;34913;47.520;19.186;2023-05-21T02:32:29;100004.53;;;16.26;74.51
49102;BME280;34913;47.520;19.186;2023-05-21T02:34:59;100001.84;;;16.26;73.50
49102;BME280;34913;47.520;19.186;2023-05-21T02:37:26;100006.38;;;16.25;73.39
49102;BME280;34913;47.520;19.186;2023-05-21T02:39:52;100009.22;;;16.24;73.96
49102;BME280;34913;47.520;19.186;2023-05-21T02:42:18;100006.53;;;16.24;73.59
49102;BME280;34913;47.520;19.186;2023-05-21T02:44:44;100003.69;;;16.25;73.97
49102;BME280;34913;47.520;19.186;2023-05-21T02:47:09;100001.84;;;16.26;73.60
49102;BME280;34913;47.520;19.186;2023-05-21T02:49:36;100001.38;;;16.22;73.58
49102;BME280;34913;47.520;19.186;2023-05-21T02:52:03;100010.88;;;16.16;73.47
49102;BME280;34913;47.520;19.186;2023-05-21T02:54:28;100006.53;;;16.24;73.10
49102;BME280;34913;47.520;19.186;2023-05-21T02:56:53;100003.41;;;16.28;73.21
49102;BME280;34913;47.520;19.186;2023-05-21T02:59:19;100006.38;;;16.25;73.69
49102;BME280;34913;47.520;19.186;2023-05-21T03:01:44;100005.38;;;16.26;72.97
49102;BME280;34913;47.520;19.186;2023-05-21T03:04:10;100000.53;;;16.22;72.84
49102;BME280;34913;47.520;19.186;2023-05-21T03:06:35;99998.69;;;16.22;72.73
49102;BME280;34913;47.520;19.186;2023-05-21T03:09:02;99989.81;;;16.22;72.50
49102;BME280;34913;47.520;19.186;2023-05-21T03:11:27;99994.34;;;16.21;72.95
49102;BME280;34913;47.520;19.186;2023-05-21T03:13:53;99991.31;;;16.24;72.88
49102;BME280;34913;47.520;19.186;2023-05-21T03:16:18;100000.72;;;16.28;72.77
49102;BME280;34913;47.520;19.186;2023-05-21T03:18:44;99987.31;;;16.28;72.02
49102;BME280;34913;47.520;19.186;2023-05-21T03:21:09;99990.31;;;16.33;71.80
49102;BME280;34913;47.520;19.186;2023-05-21T03:23:37;99992.84;;;16.35;71.46
49102;BME280;34913;47.520;19.186;2023-05-21T03:26:03;99995.22;;;16.38;71.95
49102;BME280;34913;47.520;19.186;2023-05-21T03:28:30;100001.75;;;16.35;71.22
49102;BME280;34913;47.520;19.186;2023-05-21T03:30:55;100004.25;;;16.37;72.76
49102;BME280;34913;47.520;19.186;2023-05-21T03:33:21;100001.06;;;16.41;70.75
49102;BME280;34913;47.520;19.186;2023-05-21T03:35:47;100006.25;;;16.43;70.27
49102;BME280;34913;47.520;19.186;2023-05-21T03:38:12;100002.44;;;16.45;70.34
49102;BME280;34913;47.520;19.186;2023-05-21T03:40:37;100010.31;;;16.55;70.21
49102;BME280;34913;47.520;19.186;2023-05-21T03:43:03;100000.94;;;16.59;70.26
49102;BME280;34913;47.520;19.186;2023-05-21T03:45:28;100010.31;;;16.63;70.80
49102;BME280;34913;47.520;19.186;2023-05-21T03:47:54;100006.50;;;16.74;68.92
49102;BME280;34913;47.520;19.186;2023-05-21T03:50:19;100005.53;;;16.83;69.31
49102;BME280;34913;47.520;19.186;2023-05-21T03:52:45;100007.53;;;16.89;68.82
49102;BME280;34913;47.520;19.186;2023-05-21T03:55:10;100013.88;;;16.96;69.38
49102;BME280;34913;47.520;19.186;2023-05-21T03:57:36;100014.41;;;17.08;68.43
49102;BME280;34913;47.520;19.186;2023-05-21T04:00:02;100025.44;;;17.29;66.60
49102;BME280;34913;47.520;19.186;2023-05-21T04:02:28;100020.06;;;17.54;66.82
49102;BME280;34913;47.520;19.186;2023-05-21T04:04:53;100016.97;;;17.81;65.05
49102;BME280;34913;47.520;19.186;2023-05-21T04:07:20;100019.34;;;18.16;65.15
49102;BME280;34913;47.520;19.186;2023-05-21T04:09:46;100021.88;;;18.48;62.83
49102;BME280;34913;47.520;19.186;2023-05-21T04:12:12;100020.06;;;18.72;61.19
49102;BME280;34913;47.520;19.186;2023-05-21T04:14:38;100018.81;;;19.05;61.65
49102;BME280;34913;47.520;19.186;2023-05-21T04:17:04;100021.00;;;19.24;59.51
49102;BME280;34913;47.520;19.186;2023-05-21T04:19:30;100024.97;;;19.51;58.70
49102;BME280;34913;47.520;19.186;2023-05-21T04:21:56;100023.91;;;19.75;57.90
49102;BME280;34913;47.520;19.186;2023-05-21T04:24:25;100026.84;;;19.95;57.87
49102;BME280;34913;47.520;19.186;2023-05-21T04:26:51;100020.91;;;19.85;56.41
49102;BME280;34913;47.520;19.186;2023-05-21T04:29:16;100021.06;;;20.13;57.17
49102;BME280;34913;47.520;19.186;2023-05-21T04:31:47;100031.22;;;19.96;56.27
49102;BME280;34913;47.520;19.186;2023-05-21T04:34:12;100033.47;;;19.93;56.67
49102;BME280;34913;47.520;19.186;2023-05-21T04:36:38;100034.00;;;19.88;56.90
49102;BME280;34913;47.520;19.186;2023-05-21T04:39:03;100026.66;;;19.97;56.96
49102;BME280;34913;47.520;19.186;2023-05-21T04:41:30;100026.00;;;20.24;56.17
49102;BME280;34913;47.520;19.186;2023-05-21T04:43:56;100024.69;;;20.05;56.17
49102;BME280;34913;47.520;19.186;2023-05-21T04:46:22;100018.09;;;20.23;56.74
49102;BME280;34913;47.520;19.186;2023-05-21T04:48:54;100021.53;;;20.46;55.08
49102;BME280;34913;47.520;19.186;2023-05-21T04:51:20;100020.28;;;20.34;55.87
49102;BME280;34913;47.520;19.186;2023-05-21T04:53:50;100016.03;;;20.25;55.42
49102;BME280;34913;47.520;19.186;2023-05-21T04:56:18;100013.69;;;20.36;55.16
49102;BME280;34913;47.520;19.186;2023-05-21T04:58:44;100013.53;;;20.23;55.29
49102;BME280;34913;47.520;19.186;2023-05-21T05:01:10;100011.38;;;20.48;56.12
49102;BME280;34913;47.520;19.186;2023-05-21T05:03:37;100021.44;;;20.61;55.14
49102;BME280;34913;47.520;19.186;2023-05-21T05:06:03;100017.47;;;21.21;54.86
49102;BME280;34913;47.520;19.186;2023-05-21T05:08:29;100017.25;;;21.23;52.89
49102;BME280;34913;47.520;19.186;2023-05-21T05:10:54;100018.50;;;20.99;53.95
49102;BME280;34913;47.520;19.186;2023-05-21T05:13:20;100021.94;;;20.86;53.25
49102;BME280;34913;47.520;19.186;2023-05-21T05:15:45;100018.72;;;20.97;54.56
49102;BME280;34913;47.520;19.186;2023-05-21T05:18:11;100022.88;;;21.21;54.40
49102;BME280;34913;47.520;19.186;2023-05-21T05:20:37;100014.38;;;21.80;53.00
49102;BME280;34913;47.520;19.186;2023-05-21T05:23:02;100013.69;;;21.65;52.32
49102;BME280;34913;47.520;19.186;2023-05-21T05:25:28;100014.47;;;21.59;51.84
49102;BME280;34913;47.520;19.186;2023-05-21T05:27:54;100005.47;;;21.86;52.11
49102;BME280;34913;47.520;19.186;2023-05-21T05:30:19;100009.91;;;21.59;52.14
49102;BME280;34913;47.520;19.186;2023-05-21T05:32:45;100020.91;;;21.64;51.51
49102;BME280;34913;47.520;19.186;2023-05-21T05:35:11;100022.63;;;21.72;51.91
49102;BME280;34913;47.520;19.186;2023-05-21T05:37:36;100019.09;;;21.65;51.89
49102;BME280;34913;47.520;19.186;2023-05-21T05:40:03;100012.47;;;22.09;52.26
49102;BME280;34913;47.520;19.186;2023-05-21T05:42:29;100013.72;;;22.74;50.50
49102;BME280;34913;47.520;19.186;2023-05-21T05:44:55;100009.22;;;22.20;50.49
49102;BME280;34913;47.520;19.186;2023-05-21T05:47:21;100005.53;;;22.41;50.81
49102;BME280;34913;47.520;19.186;2023-05-21T05:49:46;100011.53;;;22.29;50.69
49102;BME280;34913;47.520;19.186;2023-05-21T05:52:12;100006.97;;;22.37;50.90
49102;BME280;34913;47.520;19.186;2023-05-21T05:54:38;100004.56;;;22.75;49.64
49102;BME280;34913;47.520;19.186;2023-05-21T05:57:04;100002.47;;;22.64;49.33
49102;BME280;34913;47.520;19.186;2023-05-21T05:59:29;99998.59;;;22.86;50.07
49102;BME280;34913;47.520;19.186;2023-05-21T06:01:55;99996.09;;;23.24;48.75
49102;BME280;34913;47.520;19.186;2023-05-21T06:04:20;99998.38;;;23.21;48.27
49102;BME280;34913;47.520;19.186;2023-05-21T06:06:46;100003.59;;;23.09;48.47
49102;BME280;34913;47.520;19.186;2023-05-21T06:09:12;99997.56;;;23.27;47.50
49102;BME280;34913;47.520;19.186;2023-05-21T06:11:38;99994.03;;;23.00;48.18
49102;BME280;34913;47.520;19.186;2023-05-21T06:14:03;99996.88;;;22.78;49.01
49102;BME280;34913;47.520;19.186;2023-05-21T06:16:29;99998.78;;;22.98;49.05
49102;BME280;34913;47.520;19.186;2023-05-21T06:18:58;99982.34;;;23.12;49.07
49102;BME280;34913;47.520;19.186;2023-05-21T06:21:23;99988.59;;;23.46;47.86
49102;BME280;34913;47.520;19.186;2023-05-21T06:23:50;99979.41;;;23.40;46.76
49102;BME280;34913;47.520;19.186;2023-05-21T06:26:15;99981.25;;;23.73;47.13
49102;BME280;34913;47.520;19.186;2023-05-21T06:28:43;99984.78;;;23.74;46.46
49102;BME280;34913;47.520;19.186;2023-05-21T06:31:08;99973.44;;;24.03;46.31
49102;BME280;34913;47.520;19.186;2023-05-21T06:33:34;99978.31;;;23.75;46.96
49102;BME280;34913;47.520;19.186;2023-05-21T06:35:59;99979.38;;;24.25;46.64
49102;BME280;34913;47.520;19.186;2023-05-21T06:38:25;99981.19;;;23.93;45.86
49102;BME280;34913;47.520;19.186;2023-05-21T06:40:50;99974.38;;;24.29;45.92
49102;BME280;34913;47.520;19.186;2023-05-21T06:43:16;99972.16;;;24.06;45.93
49102;BME280;34913;47.520;19.186;2023-05-21T06:45:41;99967.81;;;23.98;44.97
49102;BME280;34913;47.520;19.186;2023-05-21T06:48:07;99973.81;;;24.13;45.48
49102;BME280;34913;47.520;19.186;2023-05-21T06:50:33;99970.94;;;24.46;47.30
49102;BME280;34913;47.520;19.186;2023-05-21T06:52:58;99958.69;;;24.37;45.29
49102;BME280;34913;47.520;19.186;2023-05-21T06:55:23;99972.72;;;24.28;45.46
49102;BME280;34913;47.520;19.186;2023-05-21T06:57:49;99959.38;;;24.26;45.20
49102;BME280;34913;47.520;19.186;2023-05-21T07:00:14;99962.75;;;24.85;44.60
49102;BME280;34913;47.520;19.186;2023-05-21T07:02:40;99965.28;;;25.11;43.63
49102;BME280;34913;47.520;19.186;2023-05-21T07:05:06;99962.44;;;24.43;45.74
49102;BME280;34913;47.520;19.186;2023-05-21T07:07:31;99969.56;;;24.37;44.91
49102;BME280;34913;47.520;19.186;2023-05-21T07:09:58;99965.06;;;24.11;45.95
49102;BME280;34913;47.520;19.186;2023-05-21T07:12:24;99961.41;;;24.37;46.34
49102;BME280;34913;47.520;19.186;2023-05-21T07:14:49;99966.13;;;24.48;45.29
49102;BME280;34913;47.520;19.186;2023-05-21T07:17:15;99967.72;;;25.19;44.71
49102;BME280;34913;47.520;19.186;2023-05-21T07:19:40;99965.59;;;25.46;43.18
49102;BME280;34913;47.520;19.186;2023-05-21T07:22:06;99967.16;;;25.79;42.69
49102;BME280;34913;47.520;19.186;2023-05-21T07:24:31;99966.44;;;25.65;42.84
49102;BME280;34913;47.520;19.186;2023-05-21T07:26:57;99974.00;;;25.63;41.56
49102;BME280;34913;47.520;19.186;2023-05-21T07:29:22;99962.25;;;25.87;43.53
49102;BME280;34913;47.520;19.186;2023-05-21T07:31:48;99962.63;;;25.73;42.83
49102;BME280;34913;47.520;19.186;2023-05-21T07:34:14;99963.94;;;25.64;41.73
49102;BME280;34913;47.520;19.186;2023-05-21T07:36:40;99959.28;;;25.27;43.03
49102;BME280;34913;47.520;19.186;2023-05-21T07:39:05;99959.28;;;25.71;43.27
49102;BME280;34913;47.520;19.186;2023-05-21T07:41:31;99961.91;;;25.59;43.76
49102;BME280;34913;47.520;19.186;2023-05-21T07:43:56;99953.31;;;25.99;44.91
49102;BME280;34913;47.520;19.186;2023-05-21T07:46:22;99964.78;;;26.19;43.17
49102;BME280;34913;47.520;19.186;2023-05-21T07:48:47;99965.38;;;26.39;43.31
49102;BME280;34913;47.520;19.186;2023-05-21T07:51:14;99966.00;;;26.53;43.08
49102;BME280;34913;47.520;19.186;2023-05-21T07:53:39;99959.00;;;26.27;41.73
49102;BME280;34913;47.520;19.186;2023-05-21T07:56:05;99964.56;;;26.39;41.84
49102;BME280;34913;47.520;19.186;2023-05-21T07:58:31;99966.00;;;26.95;42.57
49102;BME280;34913;47.520;19.186;2023-05-21T08:00:59;99966.94;;;27.00;40.94
49102;BME280;34913;47.520;19.186;2023-05-21T08:03:25;99963.22;;;26.71;40.40
49102;BME280;34913;47.520;19.186;2023-05-21T08:05:50;99970.41;;;26.36;41.06
49102;BME280;34913;47.520;19.186;2023-05-21T08:08:19;99963.84;;;26.43;41.82
49102;BME280;34913;47.520;19.186;2023-05-21T08:10:46;99971.78;;;26.87;41.51
49102;BME280;34913;47.520;19.186;2023-05-21T08:13:12;99960.47;;;27.13;41.50
49102;BME280;34913;47.520;19.186;2023-05-21T08:15:38;99963.09;;;27.43;41.87
49102;BME280;34913;47.520;19.186;2023-05-21T08:18:03;99978.25;;;27.27;39.56
49102;BME280;34913;47.520;19.186;2023-05-21T08:20:30;99959.81;;;26.88;40.68
49102;BME280;34913;47.520;19.186;2023-05-21T08:22:57;99965.66;;;26.61;41.30
49102;BME280;34913;47.520;19.186;2023-05-21T08:25:24;99960.81;;;27.05;41.50
49102;BME280;34913;47.520;19.186;2023-05-21T08:27:50;99956.09;;;27.36;42.68
49102;BME280;34913;47.520;19.186;2023-05-21T08:30:15;99963.91;;;27.55;42.46
49102;BME280;34913;47.520;19.186;2023-05-21T08:32:41;99963.78;;;27.86;41.26
49102;BME280;34913;47.520;19.186;2023-05-21T08:35:07;99965.28;;;27.93;39.61
49102;BME280;34913;47.520;19.186;2023-05-21T08:37:33;99971.63;;;27.82;39.05
49102;BME280;34913;47.520;19.186;2023-05-21T08:39:58;99971.50;;;27.53;40.76
49102;BME280;34913;47.520;19.186;2023-05-21T08:42:35;99968.19;;;27.51;41.03
49102;BME280;34913;47.520;19.186;2023-05-21T08:45:04;99959.78;;;27.41;39.20
49102;BME280;34913;47.520;19.186;2023-05-21T08:47:33;99964.00;;;27.49;40.58
49102;BME280;34913;47.520;19.186;2023-05-21T08:49:59;99978.03;;;27.52;39.26
49102;BME280;34913;47.520;19.186;2023-05-21T08:52:25;99963.22;;;27.37;39.73
49102;BME280;34913;47.520;19.186;2023-05-21T08:54:51;99967.59;;;27.49;41.10
49102;BME280;34913;47.520;19.186;2023-05-21T08:57:18;99967.00;;;27.24;39.61
49102;BME280;34913;47.520;19.186;2023-05-21T08:59:44;99961.91;;;27.39;39.04
49102;BME280;34913;47.520;19.186;2023-05-21T09:02:11;99960.00;;;27.28;41.32
49102;BME280;34913;47.520;19.186;2023-05-21T09:04:39;99962.50;;;27.41;40.11
49102;BME280;34913;47.520;19.186;2023-05-21T09:07:06;99968.06;;;27.58;39.83
49102;BME280;34913;47.520;19.186;2023-05-21T09:09:33;99960.41;;;27.95;38.04
49102;BME280;34913;47.520;19.186;2023-05-21T09:12:04;99952.47;;;28.05;39.20
49102;BME280;34913;47.520;19.186;2023-05-21T09:14:30;99962.69;;;27.87;37.48
49102;BME280;34913;47.520;19.186;2023-05-21T09:16:55;99967.13;;;27.76;37.23
49102;BME280;34913;47.520;19.186;2023-05-21T09:19:21;99963.56;;;27.29;38.32
49102;BME280;34913;47.520;19.186;2023-05-21T09:21:46;99960.75;;;26.93;38.40
49102;BME280;34913;47.520;19.186;2023-05-21T09:24:15;99963.19;;;27.25;39.19
49102;BME280;34913;47.520;19.186;2023-05-21T09:26:44;99957.41;;;27.68;41.85
49102;BME280;34913;47.520;19.186;2023-05-21T09:29:11;99953.03;;;27.67;39.14
49102;BME280;34913;47.520;19.186;2023-05-21T09:31:44;99957.03;;;27.76;38.57
49102;BME280;34913;47.520;19.186;2023-05-21T09:34:10;99952.72;;;27.92;39.31
49102;BME280;34913;47.520;19.186;2023-05-21T09:36:37;99953.41;;;28.28;39.16
49102;BME280;34913;47.520;19.186;2023-05-21T09:39:03;99949.53;;;27.84;36.88
49102;BME280;34913;47.520;19.186;2023-05-21T09:41:32;99951.91;;;27.92;37.54
49102;BME280;34913;47.520;19.186;2023-05-21T09:44:03;99948.59;;;27.90;40.01
49102;BME280;34913;47.520;19.186;2023-05-21T09:46:39;99954.97;;;27.95;38.84
49102;BME280;34913;47.520;19.186;2023-05-21T09:49:04;99950.72;;;27.88;38.88
49102;BME280;34913;47.520;19.186;2023-05-21T09:51:30;99949.78;;;28.22;37.54
49102;BME280;34913;47.520;19.186;2023-05-21T09:53:56;99950.38;;;28.24;37.38
49102;BME280;34913;47.520;19.186;2023-05-21T09:56:26;99951.34;;;28.30;37.97
49102;BME280;34913;47.520;19.186;2023-05-21T09:59:02;99947.53;;;28.31;36.59
49102;BME280;34913;47.520;19.186;2023-05-21T10:01:31;99940.19;;;28.48;37.85
49102;BME280;34913;47.520;19.186;2023-05-21T10:04:01;99939.28;;;28.59;36.59
49102;BME280;34913;47.520;19.186;2023-05-21T10:06:28;99941.88;;;28.83;37.20
49102;BME280;34913;47.520;19.186;2023-05-21T10:08:56;99935.69;;;28.71;37.93
49102;BME280;34913;47.520;19.186;2023-05-21T10:11:24;99935.97;;;28.41;37.93
49102;BME280;34913;47.520;19.186;2023-05-21T10:14:04;99933.00;;;28.02;37.23
49102;BME280;34913;47.520;19.186;2023-05-21T10:16:32;99928.66;;;28.18;37.12
49102;BME280;34913;47.520;19.186;2023-05-21T10:18:57;99930.59;;;28.46;37.36
49102;BME280;34913;47.520;19.186;2023-05-21T10:21:24;99929.47;;;28.75;37.09
49102;BME280;34913;47.520;19.186;2023-05-21T10:23:50;99919.97;;;28.78;35.03
49102;BME280;34913;47.520;19.186;2023-05-21T10:26:18;99920.91;;;28.26;35.87
49102;BME280;34913;47.520;19.186;2023-05-21T10:28:46;99916.66;;;28.30;37.01
49102;BME280;34913;47.520;19.186;2023-05-21T10:31:12;99911.31;;;27.95;36.15
49102;BME280;34913;47.520;19.186;2023-05-21T10:33:37;99913.47;;;28.22;36.83
49102;BME280;34913;47.520;19.186;2023-05-21T10:36:04;99920.09;;;28.26;35.34
49102;BME280;34913;47.520;19.186;2023-05-21T10:38:32;99911.06;;;28.37;36.19
49102;BME280;34913;47.520;19.186;2023-05-21T10:40:58;99919.03;;;28.55;38.83
49102;BME280;34913;47.520;19.186;2023-05-21T10:49:32;99924.97;;;28.24;36.61
49102;BME280;34913;47.520;19.186;2023-05-21T10:58:08;99907.53;;;28.53;35.72
49102;BME280;34913;47.520;19.186;2023-05-21T11:00:37;99914.91;;;28.53;35.41
49102;BME280;34913;47.520;19.186;2023-05-21T11:03:04;99921.47;;;28.40;35.43
49102;BME280;34913;47.520;19.186;2023-05-21T11:08:21;99905.94;;;28.41;37.34
49102;BME280;34913;47.520;19.186;2023-05-21T11:10:54;99912.22;;;28.58;36.45
49102;BME280;34913;47.520;19.186;2023-05-21T11:13:22;99917.78;;;28.46;34.38
49102;BME280;34913;47.520;19.186;2023-05-21T11:21:12;99906.50;;;28.43;36.59
49102;BME280;34913;47.520;19.186;2023-05-21T11:26:20;99899.88;;;28.39;34.67
49102;BME280;34913;47.520;19.186;2023-05-21T11:29:07;99912.75;;;28.55;36.60
49102;BME280;34913;47.520;19.186;2023-05-21T11:31:33;99901.91;;;28.77;34.90
49102;BME280;34913;47.520;19.186;2023-05-21T11:34:23;99907.84;;;28.74;35.85
49102;BME280;34913;47.520;19.186;2023-05-21T11:39:46;99911.50;;;28.62;32.04
49102;BME280;34913;47.520;19.186;2023-05-21T11:42:15;99899.06;;;28.38;33.73
49102;BME280;34913;47.520;19.186;2023-05-21T11:44:51;99891.69;;;28.39;35.30
49102;BME280;34913;47.520;19.186;2023-05-21T11:47:18;99898.66;;;28.18;33.87
49102;BME280;34913;47.520;19.186;2023-05-21T11:49:44;99895.41;;;28.32;34.61
49102;BME280;34913;47.520;19.186;2023-05-21T11:52:11;99891.41;;;28.52;34.43
49102;BME280;34913;47.520;19.186;2023-05-21T11:54:39;99892.25;;;28.12;35.02
49102;BME280;34913;47.520;19.186;2023-05-21T11:57:08;99892.69;;;28.32;36.44
49102;BME280;34913;47.520;19.186;2023-05-21T11:59:35;99885.75;;;28.58;34.62
49102;BME280;34913;47.520;19.186;2023-05-21T12:02:01;99875.34;;;28.55;34.95
49102;BME280;34913;47.520;19.186;2023-05-21T12:04:31;99884.59;;;28.71;36.08
49102;BME280;34913;47.520;19.186;2023-05-21T12:06:57;99881.09;;;28.42;37.07
49102;BME280;34913;47.520;19.186;2023-05-21T12:09:23;99869.06;;;28.26;36.60
49102;BME280;34913;47.520;19.186;2023-05-21T12:11:48;99873.00;;;28.30;35.07
49102;BME280;34913;47.520;19.186;2023-05-21T12:14:15;99868.09;;;28.32;35.88
49102;BME280;34913;47.520;19.186;2023-05-21T12:16:41;99879.13;;;28.09;34.78
49102;BME280;34913;47.520;19.186;2023-05-21T12:19:06;99862.38;;;27.89;34.41
49102;BME280;34913;47.520;19.186;2023-05-21T12:21:33;99856.69;;;27.78;33.70
49102;BME280;34913;47.520;19.186;2023-05-21T12:23:59;99865.75;;;27.96;35.61
49102;BME280;34913;47.520;19.186;2023-05-21T12:26:25;99858.78;;;28.17;36.28
49102;BME280;34913;47.520;19.186;2023-05-21T12:28:54;99855.97;;;28.12;34.47
49102;BME280;34913;47.520;19.186;2023-05-21T12:31:21;99865.56;;;28.14;36.07
49102;BME280;34913;47.520;19.186;2023-05-21T12:33:50;99853.06;;;28.01;36.69
49102;BME280;34913;47.520;19.186;2023-05-21T12:36:29;99853.41;;;28.05;35.72
49102;BME280;34913;47.520;19.186;2023-05-21T12:38:56;99856.66;;;27.90;35.21
49102;BME280;34913;47.520;19.186;2023-05-21T12:41:22;99845.91;;;27.84;36.23
49102;BME280;34913;47.520;19.186;2023-05-21T12:43:49;99855.97;;;27.83;36.08
49102;BME280;34913;47.520;19.186;2023-05-21T12:46:15;99852.22;;;28.01;36.58
49102;BME280;34913;47.520;19.186;2023-05-21T12:48:51;99834.06;;;28.06;36.71
49102;BME280;34913;47.520;19.186;2023-05-21T12:51:17;99844.00;;;27.84;36.74
49102;BME280;34913;47.520;19.186;2023-05-21T12:53:43;99833.97;;;27.73;35.77
49102;BME280;34913;47.520;19.186;2023-05-21T12:56:12;99830.75;;;27.64;35.95
49102;BME280;34913;47.520;19.186;2023-05-21T12:58:39;99838.97;;;27.52;35.62
49102;BME280;34913;47.520;19.186;2023-05-21T13:01:09;99827.63;;;27.44;36.18
49102;BME280;34913;47.520;19.186;2023-05-21T13:03:35;99827.50;;;27.50;36.36
49102;BME280;34913;47.520;19.186;2023-05-21T13:06:01;99823.25;;;27.83;36.75
49102;BME280;34913;47.520;19.186;2023-05-21T13:08:27;99827.50;;;27.91;34.98
49102;BME280;34913;47.520;19.186;2023-05-21T13:10:53;99829.53;;;27.84;34.83
49102;BME280;34913;47.520;19.186;2023-05-21T13:13:18;99820.66;;;27.65;35.70
49102;BME280;34913;47.520;19.186;2023-05-21T13:15:44;99810.09;;;27.80;36.80